createdAt,value
2023-03-02T00:03:08.369Z,51.48
2023-03-02T00:08:11.914Z,51.49
2023-03-02T00:13:16.758Z,51.43
2023-03-02T00:18:20.150Z,51.85
2023-03-02T00:23:23.577Z,52.03
2023-03-02T00:28:29.585Z,52.49
2023-03-02T00:33:33.156Z,51.92
2023-03-02T00:38:36.585Z,52.63
2023-03-02T00:43:41.868Z,52.56
2023-03-02T00:48:46.162Z,52.75
2023-03-02T00:53:49.770Z,52.37
2023-03-02T00:58:56.361Z,54.46
2023-03-02T01:04:00.757Z,52.70
2023-03-02T01:09:04.503Z,52.15
2023-03-02T01:14:09.374Z,53.29
2023-03-02T01:19:13.159Z,53.50
2023-03-02T01:24:16.974Z,53.96
2023-03-02T01:29:21.754Z,53.95
2023-03-02T01:34:25.559Z,54.55
2023-03-02T01:39:28.971Z,54.68
2023-03-02T01:44:43.551Z,53.80
2023-03-02T01:49:51.819Z,54.48
2023-03-02T01:55:00.134Z,54.57
2023-03-02T02:00:10.297Z,54.23
2023-03-02T02:05:20.765Z,55.13
2023-03-02T02:10:24.672Z,55.16
2023-03-02T02:15:29.745Z,55.46
2023-03-02T02:20:37.791Z,55.02
2023-03-02T02:25:58.131Z,55.01
2023-03-02T02:31:09.097Z,55.54
2023-03-02T02:36:19.696Z,55.19
2023-03-02T02:41:29.385Z,55.41
2023-03-02T02:46:36.234Z,55.06
2023-03-02T02:51:39.852Z,55.24
2023-03-02T02:56:45.613Z,56.08
2023-03-02T03:01:50.937Z,55.72
2023-03-02T03:06:58.350Z,55.30
2023-03-02T03:12:15.482Z,54.84
2023-03-02T03:17:19.131Z,53.94
2023-03-02T03:22:28.842Z,54.74
2023-03-02T03:27:34.605Z,54.96
2023-03-02T03:32:39.735Z,54.42
2023-03-02T03:37:45.710Z,55.82
2023-03-02T03:42:52.222Z,54.81
2023-03-02T03:47:55.766Z,55.64
2023-03-02T03:52:59.331Z,55.77
2023-03-02T03:58:06.612Z,57.34
2023-03-02T04:03:10.999Z,56.04
2023-03-02T04:08:14.925Z,56.43
2023-03-02T04:13:22.337Z,56.24
2023-03-02T04:18:26.650Z,55.89
2023-03-02T04:23:31.056Z,56.31
2023-03-02T04:28:36.064Z,56.13
2023-03-02T04:33:40.029Z,56.51
2023-03-02T04:38:43.811Z,56.82
2023-03-02T04:43:48.818Z,58.04
2023-03-02T04:48:58.685Z,57.87
2023-03-02T04:54:23.260Z,58.77
2023-03-02T04:59:31.545Z,58.08
2023-03-02T05:04:35.049Z,57.09
2023-03-02T05:09:38.379Z,57.21
2023-03-02T05:14:45.418Z,57.27
2023-03-02T05:19:49.056Z,57.36
2023-03-02T05:24:52.460Z,57.80
2023-03-02T05:29:57.421Z,56.39
2023-03-02T05:35:00.844Z,57.10
2023-03-02T05:40:06.526Z,56.72
2023-03-02T05:45:20.077Z,56.21
2023-03-02T05:50:23.745Z,56.93
2023-03-02T05:55:27.842Z,57.87
2023-03-02T06:00:32.716Z,59.14
2023-03-02T06:05:36.649Z,59.04
2023-03-02T06:10:40.207Z,58.67
2023-03-02T06:15:44.978Z,58.22
2023-03-02T06:20:48.576Z,58.68
2023-03-02T06:25:52.027Z,57.59
2023-03-02T06:30:56.897Z,57.89
2023-03-02T06:36:00.581Z,58.27
2023-03-02T06:41:04.510Z,57.98
2023-03-02T06:46:10.840Z,58.21
2023-03-02T06:51:14.442Z,58.48
2023-03-02T06:56:17.985Z,59.19
2023-03-02T07:01:23.032Z,62.01
2023-03-02T07:06:26.434Z,60.31
2023-03-02T07:11:30.421Z,59.55
2023-03-02T07:16:36.148Z,59.34
2023-03-02T07:21:39.591Z,58.60
2023-03-02T07:26:43.145Z,58.61
2023-03-02T07:31:48.774Z,58.60
2023-03-02T07:36:54.079Z,57.90
2023-03-02T07:42:00.007Z,58.89
2023-03-02T07:47:06.477Z,59.09
2023-03-02T07:52:10.050Z,59.29
2023-03-02T07:57:16.111Z,58.81
2023-03-02T08:02:21.433Z,59.00
2023-03-02T08:07:24.993Z,58.86
2023-03-02T08:12:28.838Z,58.76
2023-03-02T08:17:40.064Z,58.15
2023-03-02T08:22:54.902Z,58.63
2023-03-02T08:28:01.216Z,58.78
2023-03-02T08:33:09.591Z,58.87
2023-03-02T08:38:17.159Z,59.04
2023-03-02T08:43:22.040Z,59.39
2023-03-02T08:48:28.449Z,58.68
2023-03-02T08:53:34.611Z,60.21
2023-03-02T08:58:39.415Z,59.05
2023-03-02T09:03:47.790Z,58.43
2023-03-02T09:08:51.290Z,58.78
2023-03-02T09:13:56.179Z,58.09
2023-03-02T09:19:01.174Z,58.09
2023-03-02T09:24:05.167Z,58.00
2023-03-02T09:29:13.327Z,57.63
2023-03-02T09:34:18.325Z,57.34
2023-03-02T09:39:21.946Z,57.54
2023-03-02T09:44:56.532Z,56.39
2023-03-02T09:50:07.393Z,56.24
2023-03-02T09:55:16.647Z,55.69
2023-03-02T10:00:27.910Z,55.79
2023-03-02T10:05:39.864Z,55.93
2023-03-02T10:10:47.707Z,54.71
2023-03-02T10:16:04.665Z,55.57
2023-03-02T10:21:15.453Z,54.52
2023-03-02T10:26:35.310Z,54.14
2023-03-02T10:31:43.345Z,53.73
2023-03-02T10:36:48.272Z,53.09
2023-03-02T10:41:57.217Z,52.22
2023-03-02T10:47:01.151Z,51.67
2023-03-02T10:52:16.871Z,51.39
2023-03-02T10:57:31.326Z,51.21
2023-03-02T11:02:37.572Z,50.51
2023-03-02T11:07:53.433Z,50.66
2023-03-02T11:12:57.189Z,49.83
2023-03-02T11:18:06.237Z,49.87
2023-03-02T11:23:34.172Z,50.21
2023-03-02T11:28:48.265Z,50.06
2023-03-02T11:34:16.708Z,49.18
2023-03-02T11:39:27.016Z,47.89
2023-03-02T11:44:31.122Z,47.98
2023-03-02T11:49:41.146Z,48.20
2023-03-02T11:54:51.179Z,47.56
2023-03-02T11:59:58.915Z,47.40
2023-03-02T12:05:04.750Z,48.38
2023-03-02T12:10:28.517Z,47.96
2023-03-02T12:15:43.290Z,46.75
2023-03-02T12:20:47.233Z,45.64
2023-03-02T12:26:04.233Z,46.67
2023-03-02T12:31:16.222Z,44.28
2023-03-02T12:36:28.387Z,44.95
2023-03-02T12:41:54.191Z,45.94
2023-03-02T12:47:03.948Z,45.19
2023-03-02T12:52:24.233Z,45.37
2023-03-02T12:57:29.616Z,44.57
2023-03-02T13:02:35.639Z,44.63
2023-03-02T13:07:44.460Z,44.00
2023-03-02T13:12:49.653Z,43.73
2023-03-02T13:17:58.023Z,43.76
2023-03-02T13:23:01.549Z,43.74
2023-03-02T13:28:07.942Z,43.60
2023-03-02T13:33:23.721Z,45.44
2023-03-02T13:38:31.025Z,42.89
2023-03-02T13:43:40.902Z,43.38
2023-03-02T13:49:10.591Z,43.95
2023-03-02T13:54:30.002Z,43.60
2023-03-02T13:59:37.253Z,41.75
2023-03-02T14:04:41.009Z,42.36
2023-03-02T14:09:53.203Z,42.75
2023-03-02T14:15:05.070Z,43.35
2023-03-02T14:20:40.155Z,42.73
2023-03-02T14:25:43.773Z,41.94
2023-03-02T14:30:55.384Z,42.28
2023-03-02T14:36:18.989Z,42.68
2023-03-02T14:41:38.465Z,42.19
2023-03-02T14:47:12.459Z,41.70
2023-03-02T14:52:44.599Z,42.21
2023-03-02T14:57:56.665Z,42.72
2023-03-02T15:03:01.825Z,42.04
2023-03-02T15:08:06.164Z,42.17
2023-03-02T15:13:17.440Z,42.19
2023-03-02T15:18:27.473Z,41.91
2023-03-02T15:23:34.511Z,42.52
2023-03-02T15:28:38.133Z,41.42
2023-03-02T15:33:45.670Z,42.15
2023-03-02T15:39:18.621Z,41.82
2023-03-02T15:44:28.614Z,42.17
2023-03-02T15:49:47.605Z,42.79
2023-03-02T15:55:00.772Z,42.79
2023-03-02T16:00:17.048Z,43.52
2023-03-02T16:05:22.049Z,43.46
2023-03-02T16:10:32.041Z,42.87
2023-03-02T16:15:46.283Z,43.67
2023-03-02T16:20:53.156Z,43.64
2023-03-02T16:25:59.766Z,43.40
2023-03-02T16:31:11.531Z,43.88
2023-03-02T16:36:23.632Z,43.64
2023-03-02T16:41:29.793Z,44.25
2023-03-02T16:46:43.780Z,44.29
2023-03-02T16:51:49.255Z,44.46
2023-03-02T16:56:55.771Z,44.83
2023-03-02T17:02:01.216Z,45.43
2023-03-02T17:07:09.771Z,45.49
2023-03-02T17:12:14.840Z,45.82
2023-03-02T17:17:18.673Z,46.21
2023-03-02T17:22:29.179Z,46.35
2023-03-02T17:27:35.647Z,46.54
2023-03-02T17:32:49.154Z,46.03
2023-03-02T17:37:54.649Z,46.59
2023-03-02T17:42:58.266Z,46.83
2023-03-02T17:48:01.929Z,47.18
2023-03-02T17:53:06.814Z,47.01
2023-03-02T17:58:10.196Z,47.44
2023-03-02T18:03:15.632Z,47.63
2023-03-02T18:08:20.629Z,47.77
2023-03-02T18:13:24.095Z,48.25
2023-03-02T18:18:27.582Z,48.12
2023-03-02T18:23:32.568Z,47.73
2023-03-02T18:28:35.930Z,47.46
2023-03-02T18:33:39.582Z,47.69
2023-03-02T18:38:44.539Z,47.71
2023-03-02T18:43:51.051Z,48.51
2023-03-02T18:49:00.094Z,48.94
2023-03-02T18:54:11.952Z,49.05
2023-03-02T18:59:20.486Z,49.14
2023-03-02T19:04:26.813Z,49.31
2023-03-02T19:09:31.740Z,49.61
2023-03-02T19:14:35.313Z,49.83
2023-03-02T19:19:43.497Z,49.80
2023-03-02T19:24:52.828Z,49.21
2023-03-02T19:29:58.640Z,49.50
2023-03-02T19:35:02.785Z,49.59
2023-03-02T19:40:09.699Z,49.55
2023-03-02T19:45:16.620Z,49.62
2023-03-02T19:50:22.604Z,49.78
2023-03-02T19:55:28.173Z,49.42
2023-03-02T20:00:33.667Z,49.89
2023-03-02T20:05:37.824Z,50.02
2023-03-02T20:10:44.606Z,49.92
2023-03-02T20:15:48.605Z,50.30
2023-03-02T20:20:52.540Z,50.54
2023-03-02T20:25:57.695Z,50.26
2023-03-02T20:31:07.200Z,50.40
2023-03-02T20:36:13.353Z,51.10
2023-03-02T20:41:19.301Z,51.06
2023-03-02T20:46:26.732Z,51.69
2023-03-02T20:51:33.750Z,51.51
2023-03-02T20:56:39.247Z,51.01
2023-03-02T21:01:43.738Z,51.37
2023-03-02T21:06:49.680Z,51.86
2023-03-02T21:11:58.475Z,51.65
2023-03-02T21:17:03.724Z,51.92
2023-03-02T21:22:09.293Z,51.92
2023-03-02T21:27:16.148Z,51.93
2023-03-02T21:32:22.234Z,52.48
2023-03-02T21:37:27.158Z,52.59
2023-03-02T21:42:33.185Z,52.44
2023-03-02T21:47:40.066Z,52.46
2023-03-02T21:52:44.426Z,52.77
2023-03-02T21:57:50.021Z,52.70
2023-03-02T22:02:54.227Z,52.67
2023-03-02T22:07:58.926Z,53.01
2023-03-02T22:13:17.818Z,51.76
2023-03-02T22:18:25.890Z,52.34
2023-03-02T22:23:30.062Z,53.86
2023-03-02T22:28:42.142Z,53.82
2023-03-02T22:33:46.174Z,54.14
2023-03-02T22:38:51.402Z,54.01
2023-03-02T22:43:58.044Z,53.84
2023-03-02T22:49:01.744Z,54.65
2023-03-02T22:54:16.269Z,52.92
2023-03-02T22:59:24.724Z,53.77
2023-03-02T23:04:32.367Z,54.02
2023-03-02T23:09:36.827Z,54.83
2023-03-02T23:14:48.154Z,55.58
2023-03-02T23:19:52.207Z,55.95
2023-03-02T23:24:55.803Z,55.69
2023-03-02T23:30:00.673Z,55.96
2023-03-02T23:35:04.439Z,55.18
2023-03-02T23:40:09.570Z,55.63
2023-03-02T23:45:15.862Z,55.88
2023-03-02T23:50:19.694Z,55.99
2023-03-02T23:55:23.082Z,56.05
